sensor_id;sensor_type;location;lat;lon;timestamp;P1;durP1;ratioP1;P2;durP2;ratioP2
10440;SDS011;5268;49.346;9.522;2023-11-18T04:10:32;14.95;;;11.18;;
10440;SDS011;5268;49.346;9.522;2023-11-18T04:15:34;15.25;;;11.55;;
10440;SDS011;5268;49.346;9.522;2023-11-18T04:20:37;18.60;;;12.43;;
10440;SDS011;5268;49.346;9.522;2023-11-18T04:25:39;15.45;;;12.27;;
10440;SDS011;5268;49.346;9.522;2023-11-18T04:30:41;17.48;;;12.60;;
10440;SDS011;5268;49.346;9.522;2023-11-18T04:35:46;17.98;;;13.52;;
10440;SDS011;5268;49.346;9.522;2023-11-18T04:40:48;17.13;;;13.23;;
10440;SDS011;5268;49.346;9.522;2023-11-18T04:45:51;18.02;;;12.85;;
10440;SDS011;5268;49.346;9.522;2023-11-18T04:50:54;17.13;;;12.70;;
10440;SDS011;5268;49.346;9.522;2023-11-18T04:55:56;18.48;;;12.40;;
10440;SDS011;5268;49.346;9.522;2023-11-18T05:00:58;16.00;;;12.20;;
10440;SDS011;5268;49.346;9.522;2023-11-18T05:06:01;16.25;;;12.45;;
10440;SDS011;5268;49.346;9.522;2023-11-18T05:11:05;16.15;;;12.43;;
10440;SDS011;5268;49.346;9.522;2023-11-18T05:16:07;15.88;;;12.02;;
10440;SDS011;5268;49.346;9.522;2023-11-18T05:21:12;17.40;;;12.15;;
10440;SDS011;5268;49.346;9.522;2023-11-18T05:26:14;16.25;;;11.52;;
10440;SDS011;5268;49.346;9.522;2023-11-18T05:31:17;19.20;;;13.02;;
10440;SDS011;5268;49.346;9.522;2023-11-18T05:36:20;18.92;;;13.07;;
10440;SDS011;5268;49.346;9.522;2023-11-18T05:41:27;17.90;;;13.05;;
10440;SDS011;5268;49.346;9.522;2023-11-18T05:46:30;17.13;;;12.57;;
10440;SDS011;5268;49.346;9.522;2023-11-18T05:51:34;15.98;;;11.57;;
10440;SDS011;5268;49.346;9.522;2023-11-18T05:56:36;16.77;;;12.23;;
10440;SDS011;5268;49.346;9.522;2023-11-18T06:01:38;16.55;;;12.80;;
10440;SDS011;5268;49.346;9.522;2023-11-18T06:06:41;16.00;;;11.90;;
10440;SDS011;5268;49.346;9.522;2023-11-18T06:11:44;20.23;;;13.70;;
10440;SDS011;5268;49.346;9.522;2023-11-18T06:16:46;16.85;;;12.30;;
10440;SDS011;5268;49.346;9.522;2023-11-18T06:21:51;19.35;;;13.73;;
10440;SDS011;5268;49.346;9.522;2023-11-18T06:26:55;20.73;;;13.88;;
10440;SDS011;5268;49.346;9.522;2023-11-18T06:32:00;18.10;;;12.25;;
10440;SDS011;5268;49.346;9.522;2023-11-18T06:37:03;16.73;;;12.27;;
10440;SDS011;5268;49.346;9.522;2023-11-18T06:42:05;15.85;;;11.55;;
10440;SDS011;5268;49.346;9.522;2023-11-18T06:47:11;17.27;;;12.27;;
10440;SDS011;5268;49.346;9.522;2023-11-18T06:52:14;18.95;;;12.38;;
10440;SDS011;5268;49.346;9.522;2023-11-18T06:57:16;19.27;;;13.13;;
10440;SDS011;5268;49.346;9.522;2023-11-18T07:02:18;18.38;;;13.90;;
10440;SDS011;5268;49.346;9.522;2023-11-18T07:07:22;19.42;;;13.88;;
10440;SDS011;5268;49.346;9.522;2023-11-18T07:12:24;19.58;;;13.43;;
10440;SDS011;5268;49.346;9.522;2023-11-18T07:17:26;17.17;;;13.07;;
10440;SDS011;5268;49.346;9.522;2023-11-18T07:22:30;18.63;;;13.98;;
10440;SDS011;5268;49.346;9.522;2023-11-18T07:27:33;18.10;;;12.73;;
10440;SDS011;5268;49.346;9.522;2023-11-18T07:32:36;16.38;;;12.80;;
10440;SDS011;5268;49.346;9.522;2023-11-18T07:37:40;17.02;;;13.23;;
10440;SDS011;5268;49.346;9.522;2023-11-18T07:42:42;17.95;;;12.77;;
10440;SDS011;5268;49.346;9.522;2023-11-18T07:47:44;17.10;;;12.73;;
10440;SDS011;5268;49.346;9.522;2023-11-18T07:52:47;16.23;;;12.93;;
10440;SDS011;5268;49.346;9.522;2023-11-18T07:57:50;16.95;;;13.13;;
10440;SDS011;5268;49.346;9.522;2023-11-18T08:02:52;17.85;;;14.27;;
10440;SDS011;5268;49.346;9.522;2023-11-18T08:07:56;19.52;;;16.00;;
10440;SDS011;5268;49.346;9.522;2023-11-18T08:12:59;16.33;;;13.77;;
10440;SDS011;5268;49.346;9.522;2023-11-18T08:18:01;15.27;;;12.50;;
10440;SDS011;5268;49.346;9.522;2023-11-18T08:23:05;17.63;;;12.75;;
10440;SDS011;5268;49.346;9.522;2023-11-18T08:28:07;14.43;;;12.45;;
10440;SDS011;5268;49.346;9.522;2023-11-18T08:33:09;17.98;;;12.43;;
10440;SDS011;5268;49.346;9.522;2023-11-18T08:38:13;13.05;;;11.50;;
10440;SDS011;5268;49.346;9.522;2023-11-18T08:43:15;14.40;;;12.10;;
10440;SDS011;5268;49.346;9.522;2023-11-18T08:48:17;14.15;;;11.52;;
10440;SDS011;5268;49.346;9.522;2023-11-18T08:53:20;14.48;;;11.07;;
10440;SDS011;5268;49.346;9.522;2023-11-18T08:58:26;12.00;;;9.77;;
10440;SDS011;5268;49.346;9.522;2023-11-18T09:03:29;12.75;;;10.10;;
10440;SDS011;5268;49.346;9.522;2023-11-18T09:08:37;10.43;;;8.57;;
10440;SDS011;5268;49.346;9.522;2023-11-18T09:13:42;10.68;;;8.35;;
10440;SDS011;5268;49.346;9.522;2023-11-18T09:18:47;10.60;;;8.18;;
10440;SDS011;5268;49.346;9.522;2023-11-18T09:23:52;20.98;;;17.40;;
10440;SDS011;5268;49.346;9.522;2023-11-18T09:28:56;8.50;;;7.10;;
10440;SDS011;5268;49.346;9.522;2023-11-18T09:34:01;7.88;;;6.57;;
10440;SDS011;5268;49.346;9.522;2023-11-18T09:39:08;8.35;;;6.70;;
10440;SDS011;5268;49.346;9.522;2023-11-18T09:44:16;7.57;;;6.80;;
10440;SDS011;5268;49.346;9.522;2023-11-18T09:49:21;7.97;;;6.10;;
10440;SDS011;5268;49.346;9.522;2023-11-18T09:54:36;6.75;;;5.43;;
10440;SDS011;5268;49.346;9.522;2023-11-18T09:59:46;6.25;;;4.55;;
10440;SDS011;5268;49.346;9.522;2023-11-18T10:04:58;6.63;;;4.95;;
10440;SDS011;5268;49.346;9.522;2023-11-18T10:10:13;5.35;;;4.85;;
10440;SDS011;5268;49.346;9.522;2023-11-18T10:15:15;6.65;;;5.10;;
10440;SDS011;5268;49.346;9.522;2023-11-18T10:20:19;7.22;;;4.93;;
10440;SDS011;5268;49.346;9.522;2023-11-18T10:25:27;5.88;;;5.28;;
10440;SDS011;5268;49.346;9.522;2023-11-18T10:30:29;5.97;;;5.10;;
10440;SDS011;5268;49.346;9.522;2023-11-18T10:35:33;6.47;;;4.70;;
10440;SDS011;5268;49.346;9.522;2023-11-18T10:40:38;5.72;;;5.18;;
10440;SDS011;5268;49.346;9.522;2023-11-18T10:45:40;4.38;;;3.97;;
10440;SDS011;5268;49.346;9.522;2023-11-18T10:50:44;5.90;;;4.20;;
10440;SDS011;5268;49.346;9.522;2023-11-18T10:55:49;6.07;;;4.22;;
10440;SDS011;5268;49.346;9.522;2023-11-18T11:00:51;6.00;;;5.40;;
10440;SDS011;5268;49.346;9.522;2023-11-18T11:05:56;4.78;;;4.13;;
10440;SDS011;5268;49.346;9.522;2023-11-18T11:11:01;4.75;;;4.18;;
10440;SDS011;5268;49.346;9.522;2023-11-18T11:16:08;5.50;;;4.18;;
10440;SDS011;5268;49.346;9.522;2023-11-18T11:21:14;4.75;;;3.65;;
10440;SDS011;5268;49.346;9.522;2023-11-18T11:26:28;5.40;;;4.15;;
10440;SDS011;5268;49.346;9.522;2023-11-18T11:31:42;12.65;;;9.90;;
10440;SDS011;5268;49.346;9.522;2023-11-18T11:36:52;6.28;;;4.82;;
10440;SDS011;5268;49.346;9.522;2023-11-18T11:41:56;6.07;;;3.33;;
10440;SDS011;5268;49.346;9.522;2023-11-18T11:46:59;5.70;;;3.40;;
10440;SDS011;5268;49.346;9.522;2023-11-18T11:52:04;3.35;;;2.75;;
10440;SDS011;5268;49.346;9.522;2023-11-18T11:57:16;4.70;;;3.25;;
10440;SDS011;5268;49.346;9.522;2023-11-18T12:02:20;4.57;;;2.60;;
10440;SDS011;5268;49.346;9.522;2023-11-18T12:07:26;4.22;;;3.60;;
10440;SDS011;5268;49.346;9.522;2023-11-18T12:12:30;3.22;;;2.78;;
10440;SDS011;5268;49.346;9.522;2023-11-18T12:17:34;4.55;;;3.67;;
10440;SDS011;5268;49.346;9.522;2023-11-18T12:23:13;3.22;;;2.58;;
10440;SDS011;5268;49.346;9.522;2023-11-18T12:28:17;4.75;;;3.85;;
10440;SDS011;5268;49.346;9.522;2023-11-18T12:33:21;3.63;;;2.60;;
10440;SDS011;5268;49.346;9.522;2023-11-18T12:38:30;2.85;;;1.92;;
10440;SDS011;5268;49.346;9.522;2023-11-18T12:44:02;17.13;;;11.43;;
10440;SDS011;5268;49.346;9.522;2023-11-18T12:49:18;6.10;;;4.15;;
10440;SDS011;5268;49.346;9.522;2023-11-18T12:54:23;5.25;;;2.60;;
10440;SDS011;5268;49.346;9.522;2023-11-18T12:59:29;7.60;;;5.07;;
10440;SDS011;5268;49.346;9.522;2023-11-18T13:04:31;2.40;;;2.05;;
10440;SDS011;5268;49.346;9.522;2023-11-18T13:09:34;3.35;;;2.10;;
10440;SDS011;5268;49.346;9.522;2023-11-18T13:14:38;2.38;;;1.60;;
10440;SDS011;5268;49.346;9.522;2023-11-18T13:19:40;2.83;;;1.85;;
10440;SDS011;5268;49.346;9.522;2023-11-18T13:24:42;5.82;;;3.17;;
10440;SDS011;5268;49.346;9.522;2023-11-18T13:29:47;3.30;;;1.85;;
10440;SDS011;5268;49.346;9.522;2023-11-18T13:34:50;13.15;;;8.05;;
10440;SDS011;5268;49.346;9.522;2023-11-18T13:39:55;3.10;;;2.55;;
10440;SDS011;5268;49.346;9.522;2023-11-18T13:45:02;2.70;;;1.80;;
10440;SDS011;5268;49.346;9.522;2023-11-18T13:50:09;2.42;;;1.70;;
10440;SDS011;5268;49.346;9.522;2023-11-18T13:55:15;6.22;;;1.85;;
10440;SDS011;5268;49.346;9.522;2023-11-18T14:00:27;2.47;;;1.40;;
10440;SDS011;5268;49.346;9.522;2023-11-18T14:05:32;1.95;;;1.50;;
10440;SDS011;5268;49.346;9.522;2023-11-18T14:10:35;2.47;;;1.40;;
10440;SDS011;5268;49.346;9.522;2023-11-18T14:15:39;2.45;;;1.23;;
10440;SDS011;5268;49.346;9.522;2023-11-18T14:20:44;4.53;;;3.38;;
10440;SDS011;5268;49.346;9.522;2023-11-18T14:25:46;3.75;;;2.00;;
10440;SDS011;5268;49.346;9.522;2023-11-18T14:30:50;1.73;;;1.50;;
10440;SDS011;5268;49.346;9.522;2023-11-18T14:35:52;3.83;;;1.90;;
10440;SDS011;5268;49.346;9.522;2023-11-18T14:40:56;3.35;;;2.53;;
10440;SDS011;5268;49.346;9.522;2023-11-18T14:46:00;3.97;;;2.10;;
10440;SDS011;5268;49.346;9.522;2023-11-18T14:51:04;6.72;;;2.92;;
10440;SDS011;5268;49.346;9.522;2023-11-18T14:56:07;3.25;;;1.50;;
10440;SDS011;5268;49.346;9.522;2023-11-18T15:01:11;2.08;;;1.67;;
10440;SDS011;5268;49.346;9.522;2023-11-18T15:06:13;2.72;;;2.10;;
10440;SDS011;5268;49.346;9.522;2023-11-18T15:11:20;4.90;;;3.38;;
10440;SDS011;5268;49.346;9.522;2023-11-18T15:16:24;2.90;;;1.77;;
10440;SDS011;5268;49.346;9.522;2023-11-18T15:21:26;3.47;;;2.42;;
10440;SDS011;5268;49.346;9.522;2023-11-18T15:26:29;3.85;;;2.80;;
10440;SDS011;5268;49.346;9.522;2023-11-18T15:31:34;2.80;;;1.60;;
10440;SDS011;5268;49.346;9.522;2023-11-18T15:36:39;3.55;;;2.55;;
10440;SDS011;5268;49.346;9.522;2023-11-18T15:41:42;5.10;;;2.58;;
10440;SDS011;5268;49.346;9.522;2023-11-18T15:46:48;2.92;;;2.13;;
10440;SDS011;5268;49.346;9.522;2023-11-18T15:51:50;11.73;;;8.02;;
10440;SDS011;5268;49.346;9.522;2023-11-18T15:56:52;8.02;;;5.10;;
10440;SDS011;5268;49.346;9.522;2023-11-18T16:01:56;5.95;;;2.90;;
10440;SDS011;5268;49.346;9.522;2023-11-18T16:06:58;2.70;;;2.00;;
10440;SDS011;5268;49.346;9.522;2023-11-18T16:12:00;5.20;;;2.40;;
10440;SDS011;5268;49.346;9.522;2023-11-18T16:17:04;2.80;;;2.00;;
10440;SDS011;5268;49.346;9.522;2023-11-18T16:22:07;2.67;;;2.20;;
10440;SDS011;5268;49.346;9.522;2023-11-18T16:27:09;4.72;;;2.78;;
10440;SDS011;5268;49.346;9.522;2023-11-18T16:32:13;6.70;;;4.07;;
10440;SDS011;5268;49.346;9.522;2023-11-18T16:37:15;4.38;;;3.13;;
10440;SDS011;5268;49.346;9.522;2023-11-18T16:42:17;3.83;;;2.60;;
10440;SDS011;5268;49.346;9.522;2023-11-18T16:47:24;3.95;;;2.30;;
10440;SDS011;5268;49.346;9.522;2023-11-18T16:52:27;4.65;;;2.17;;
10440;SDS011;5268;49.346;9.522;2023-11-18T16:57:29;3.92;;;2.20;;
10440;SDS011;5268;49.346;9.522;2023-11-18T17:02:36;3.13;;;1.70;;
10440;SDS011;5268;49.346;9.522;2023-11-18T17:07:38;3.17;;;1.55;;
10440;SDS011;5268;49.346;9.522;2023-11-18T17:12:41;3.35;;;1.48;;
10440;SDS011;5268;49.346;9.522;2023-11-18T17:17:47;3.45;;;1.90;;
10440;SDS011;5268;49.346;9.522;2023-11-18T17:22:53;3.72;;;1.90;;
10440;SDS011;5268;49.346;9.522;2023-11-18T17:27:55;3.20;;;1.90;;
10440;SDS011;5268;49.346;9.522;2023-11-18T17:32:59;2.80;;;2.17;;
10440;SDS011;5268;49.346;9.522;2023-11-18T17:38:01;3.67;;;2.00;;
10440;SDS011;5268;49.346;9.522;2023-11-18T17:43:04;2.75;;;2.05;;
10440;SDS011;5268;49.346;9.522;2023-11-18T17:48:08;3.03;;;2.28;;
10440;SDS011;5268;49.346;9.522;2023-11-18T17:53:10;3.08;;;2.20;;
10440;SDS011;5268;49.346;9.522;2023-11-18T17:58:12;2.47;;;2.00;;
10440;SDS011;5268;49.346;9.522;2023-11-18T18:03:15;3.38;;;1.92;;
10440;SDS011;5268;49.346;9.522;2023-11-18T18:08:17;2.80;;;2.35;;
10440;SDS011;5268;49.346;9.522;2023-11-18T18:13:19;2.97;;;2.10;;
10440;SDS011;5268;49.346;9.522;2023-11-18T18:18:23;4.53;;;1.70;;
10440;SDS011;5268;49.346;9.522;2023-11-18T18:23:25;3.65;;;2.70;;
10440;SDS011;5268;49.346;9.522;2023-11-18T18:28:28;3.42;;;2.40;;
10440;SDS011;5268;49.346;9.522;2023-11-18T18:33:31;2.78;;;2.03;;
10440;SDS011;5268;49.346;9.522;2023-11-18T18:38:33;3.08;;;2.30;;
10440;SDS011;5268;49.346;9.522;2023-11-18T18:43:37;5.20;;;2.60;;
10440;SDS011;5268;49.346;9.522;2023-11-18T18:48:41;5.50;;;2.40;;
10440;SDS011;5268;49.346;9.522;2023-11-18T18:53:43;2.92;;;1.90;;
10440;SDS011;5268;49.346;9.522;2023-11-18T18:58:46;2.78;;;1.98;;
10440;SDS011;5268;49.346;9.522;2023-11-18T19:03:50;6.88;;;4.18;;
10440;SDS011;5268;49.346;9.522;2023-11-18T19:08:53;2.92;;;2.45;;
10440;SDS011;5268;49.346;9.522;2023-11-18T19:13:55;10.07;;;6.18;;
10440;SDS011;5268;49.346;9.522;2023-11-18T19:18:58;3.78;;;2.65;;
10440;SDS011;5268;49.346;9.522;2023-11-18T19:24:01;5.97;;;3.60;;
10440;SDS011;5268;49.346;9.522;2023-11-18T19:29:03;2.55;;;1.90;;
10440;SDS011;5268;49.346;9.522;2023-11-18T19:34:07;2.53;;;1.80;;
10440;SDS011;5268;49.346;9.522;2023-11-18T19:39:10;4.40;;;1.95;;
10440;SDS011;5268;49.346;9.522;2023-11-18T19:44:12;3.53;;;2.60;;
10440;SDS011;5268;49.346;9.522;2023-11-18T19:49:15;2.53;;;2.13;;
10440;SDS011;5268;49.346;9.522;2023-11-18T19:54:17;4.38;;;3.10;;
10440;SDS011;5268;49.346;9.522;2023-11-18T19:59:19;2.83;;;2.20;;
10440;SDS011;5268;49.346;9.522;2023-11-18T20:04:23;4.18;;;3.10;;
10440;SDS011;5268;49.346;9.522;2023-11-18T20:09:25;5.38;;;3.55;;
10440;SDS011;5268;49.346;9.522;2023-11-18T20:14:27;4.38;;;3.30;;
10440;SDS011;5268;49.346;9.522;2023-11-18T20:19:30;2.40;;;2.20;;
10440;SDS011;5268;49.346;9.522;2023-11-18T20:24:32;2.63;;;2.33;;
10440;SDS011;5268;49.346;9.522;2023-11-18T20:29:35;2.60;;;2.40;;
10440;SDS011;5268;49.346;9.522;2023-11-18T20:34:38;3.35;;;2.60;;
10440;SDS011;5268;49.346;9.522;2023-11-18T20:39:40;3.60;;;2.38;;
10440;SDS011;5268;49.346;9.522;2023-11-18T20:44:42;5.82;;;3.10;;
10440;SDS011;5268;49.346;9.522;2023-11-18T20:49:45;4.47;;;2.50;;
10440;SDS011;5268;49.346;9.522;2023-11-18T20:54:47;3.00;;;2.47;;
10440;SDS011;5268;49.346;9.522;2023-11-18T20:59:49;2.70;;;2.10;;
10440;SDS011;5268;49.346;9.522;2023-11-18T21:04:53;2.45;;;1.83;;
10440;SDS011;5268;49.346;9.522;2023-11-18T21:09:55;3.22;;;2.40;;
10440;SDS011;5268;49.346;9.522;2023-11-18T21:14:57;3.00;;;2.20;;
10440;SDS011;5268;49.346;9.522;2023-11-18T21:20:05;3.20;;;2.00;;
10440;SDS011;5268;49.346;9.522;2023-11-18T21:25:12;2.72;;;2.00;;
10440;SDS011;5268;49.346;9.522;2023-11-18T21:30:15;2.00;;;1.75;;
10440;SDS011;5268;49.346;9.522;2023-11-18T21:35:19;2.60;;;2.40;;
10440;SDS011;5268;49.346;9.522;2023-11-18T21:40:22;3.80;;;3.00;;
10440;SDS011;5268;49.346;9.522;2023-11-18T21:45:24;3.40;;;2.13;;
10440;SDS011;5268;49.346;9.522;2023-11-18T21:50:30;3.28;;;1.90;;
10440;SDS011;5268;49.346;9.522;2023-11-18T21:55:33;2.90;;;2.10;;
10440;SDS011;5268;49.346;9.522;2023-11-18T22:00:35;3.30;;;2.28;;
10440;SDS011;5268;49.346;9.522;2023-11-18T22:05:38;5.72;;;3.05;;
10440;SDS011;5268;49.346;9.522;2023-11-18T22:10:42;5.38;;;3.60;;
10440;SDS011;5268;49.346;9.522;2023-11-18T22:15:46;3.80;;;2.53;;
10440;SDS011;5268;49.346;9.522;2023-11-18T22:20:52;5.35;;;2.50;;
10440;SDS011;5268;49.346;9.522;2023-11-18T22:25:55;4.05;;;3.00;;
10440;SDS011;5268;49.346;9.522;2023-11-18T22:30:57;4.10;;;2.72;;
10440;SDS011;5268;49.346;9.522;2023-11-18T22:36:00;6.00;;;2.88;;
10440;SDS011;5268;49.346;9.522;2023-11-18T22:41:07;4.22;;;2.80;;
10440;SDS011;5268;49.346;9.522;2023-11-18T22:46:09;3.78;;;3.10;;
10440;SDS011;5268;49.346;9.522;2023-11-18T22:51:13;4.00;;;2.72;;
